createdAt,value
2022-08-17T00:00:49.697Z,20.83
2022-08-17T00:03:48.007Z,20.87
2022-08-17T00:06:49.112Z,20.77
2022-08-17T00:09:22.039Z,20.72
2022-08-17T00:12:41.776Z,20.73
2022-08-17T00:15:05.981Z,20.75
2022-08-17T00:17:43.582Z,20.77
2022-08-17T00:20:13.445Z,20.75
2022-08-17T00:22:44.107Z,20.69
2022-08-17T00:25:16.219Z,20.71
2022-08-17T00:27:43.981Z,20.73
2022-08-17T00:30:12.827Z,20.65
2022-08-17T00:33:15.479Z,20.60
2022-08-17T00:35:34.265Z,20.48
2022-08-17T00:38:34.612Z,20.42
2022-08-17T00:41:17.637Z,20.35
2022-08-17T00:43:57.390Z,20.41
2022-08-17T00:46:32.960Z,20.38
2022-08-17T00:49:07.237Z,20.38
2022-08-17T00:52:26.962Z,20.35
2022-08-17T00:54:55.251Z,20.38
2022-08-17T00:57:55.605Z,20.32
2022-08-17T01:00:32.439Z,20.25
2022-08-17T01:03:07.667Z,20.22
2022-08-17T01:05:38.833Z,20.22
2022-08-17T01:11:36.195Z,20.17
2022-08-17T01:14:29.218Z,20.14
2022-08-17T01:16:57.849Z,20.11
2022-08-17T01:19:35.905Z,20.13
2022-08-17T01:22:03.777Z,20.10
2022-08-17T01:24:34.131Z,20.04
2022-08-17T01:27:10.501Z,19.98
2022-08-17T01:30:06.234Z,19.94
2022-08-17T01:33:00.135Z,20.04
2022-08-17T01:35:57.003Z,19.93
2022-08-17T01:38:27.222Z,19.83
2022-08-17T01:41:07.953Z,19.81
2022-08-17T01:44:02.337Z,19.76
2022-08-17T01:46:33.567Z,19.77
2022-08-17T01:49:06.886Z,19.74
2022-08-17T01:51:34.434Z,19.73
2022-08-17T01:57:00.518Z,19.76
2022-08-17T01:59:34.224Z,19.74
2022-08-17T02:02:07.672Z,19.73
2022-08-17T02:09:02.302Z,19.63
2022-08-17T02:11:34.247Z,19.60
2022-08-17T02:14:27.887Z,19.53
2022-08-17T02:16:56.208Z,19.52
2022-08-17T02:19:23.990Z,19.51
2022-08-17T02:25:00.651Z,19.45
2022-08-17T02:27:35.278Z,19.45
2022-08-17T02:31:00.992Z,19.45
2022-08-17T02:32:58.140Z,19.46
2022-08-17T02:35:26.159Z,19.49
2022-08-17T02:37:55.809Z,19.49
2022-08-17T02:40:35.053Z,19.41
2022-08-17T02:43:10.036Z,19.48
2022-08-17T02:45:41.994Z,19.45
2022-08-17T02:51:05.864Z,19.31
2022-08-17T02:53:36.031Z,19.30
2022-08-17T02:56:29.534Z,19.27
2022-08-17T02:58:58.688Z,19.30
2022-08-17T03:01:28.055Z,19.31
2022-08-17T03:03:57.111Z,19.31
2022-08-17T03:06:29.205Z,19.21
2022-08-17T03:08:58.037Z,19.21
2022-08-17T03:11:25.860Z,19.18
2022-08-17T03:13:53.862Z,19.14
2022-08-17T03:19:42.993Z,19.16
2022-08-17T03:25:20.141Z,19.14
2022-08-17T03:27:51.488Z,19.10
2022-08-17T03:30:27.460Z,19.05
2022-08-17T03:33:20.257Z,19.01
2022-08-17T03:35:53.985Z,19.05
2022-08-17T03:38:22.052Z,19.03
2022-08-17T03:40:57.892Z,19.03
2022-08-17T03:43:51.874Z,19.01
2022-08-17T03:46:42.401Z,18.98
2022-08-17T03:49:28.509Z,19.00
2022-08-17T03:52:20.555Z,18.96
2022-08-17T03:55:06.407Z,18.97
2022-08-17T03:57:40.037Z,18.86
2022-08-17T04:00:13.723Z,18.86
2022-08-17T04:02:43.009Z,18.91
2022-08-17T04:05:09.978Z,18.84
2022-08-17T04:07:37.894Z,18.88
2022-08-17T04:10:06.440Z,18.90
2022-08-17T04:13:08.907Z,18.80
2022-08-17T04:15:40.844Z,18.79
2022-08-17T04:18:08.121Z,18.79
2022-08-17T04:20:38.015Z,18.80
2022-08-17T04:23:19.931Z,18.87
2022-08-17T04:25:53.640Z,18.81
2022-08-17T04:28:21.931Z,18.84
2022-08-17T04:31:15.059Z,18.83
2022-08-17T04:34:07.902Z,18.79
2022-08-17T04:36:41.211Z,18.80
2022-08-17T04:39:17.977Z,18.79
2022-08-17T04:42:09.172Z,18.84
2022-08-17T04:45:04.569Z,18.87
2022-08-17T04:47:32.024Z,18.88
2022-08-17T04:50:02.405Z,18.86
2022-08-17T04:52:51.057Z,18.87
2022-08-17T04:55:17.975Z,18.91
2022-08-17T04:57:46.079Z,18.90
2022-08-17T05:00:14.303Z,18.88
2022-08-17T05:02:49.606Z,18.88
2022-08-17T05:05:39.196Z,18.96
2022-08-17T05:08:08.024Z,18.98
2022-08-17T05:10:39.130Z,18.93
2022-08-17T05:13:15.963Z,19.00
2022-08-17T05:15:50.380Z,19.01
2022-08-17T05:18:17.883Z,19.04
2022-08-17T05:20:45.831Z,19.03
2022-08-17T05:23:17.012Z,19.11
2022-08-17T05:25:49.780Z,19.16
2022-08-17T05:28:27.436Z,19.25
2022-08-17T05:30:57.892Z,19.27
2022-08-17T05:33:40.418Z,19.34
2022-08-17T05:36:43.723Z,19.46
2022-08-17T05:39:31.986Z,19.53
2022-08-17T05:42:07.073Z,19.59
2022-08-17T05:44:33.834Z,19.60
2022-08-17T05:47:09.954Z,19.65
2022-08-17T05:49:38.674Z,19.73
2022-08-17T05:52:19.904Z,19.77
2022-08-17T05:55:08.098Z,19.84
2022-08-17T05:57:43.587Z,19.96
2022-08-17T06:00:43.037Z,20.00
2022-08-17T06:03:38.065Z,20.11
2022-08-17T06:06:28.914Z,20.17
2022-08-17T06:09:14.426Z,20.32
2022-08-17T06:14:40.851Z,20.53
2022-08-17T06:17:18.425Z,20.60
2022-08-17T06:20:11.358Z,20.73
2022-08-17T06:25:47.891Z,21.03
2022-08-17T06:28:25.782Z,21.18
2022-08-17T06:31:33.045Z,21.21
2022-08-17T06:34:02.747Z,21.27
2022-08-17T06:43:05.812Z,21.76
2022-08-17T06:45:49.349Z,21.86
2022-08-17T06:48:53.905Z,22.00
2022-08-17T06:51:31.121Z,22.18
2022-08-17T06:54:21.722Z,22.28
2022-08-17T06:57:28.434Z,22.27
2022-08-17T07:00:08.395Z,22.42
2022-08-17T07:03:04.265Z,22.52
2022-08-17T07:05:48.154Z,22.55
2022-08-17T07:08:32.916Z,22.71
2022-08-17T07:14:53.124Z,23.00
2022-08-17T07:17:46.554Z,23.10
2022-08-17T07:20:21.163Z,23.27
2022-08-17T07:23:40.083Z,23.45
2022-08-17T07:26:13.397Z,23.52
2022-08-17T07:29:16.583Z,23.52
2022-08-17T07:31:48.815Z,23.74
2022-08-17T07:35:11.440Z,23.92
2022-08-17T07:37:55.534Z,24.00
2022-08-17T07:43:32.986Z,24.27
2022-08-17T07:46:29.528Z,24.32
2022-08-17T07:49:13.470Z,24.34
2022-08-17T07:51:46.655Z,24.60
2022-08-17T07:54:26.397Z,24.89
2022-08-17T07:57:29.884Z,24.99
2022-08-17T08:00:05.372Z,25.10
2022-08-17T08:02:45.472Z,25.33
2022-08-17T08:08:42.361Z,25.72
2022-08-17T08:11:15.299Z,25.75
2022-08-17T08:13:45.640Z,25.99
2022-08-17T08:16:21.943Z,25.99
2022-08-17T08:18:56.824Z,26.16
2022-08-17T08:21:55.171Z,26.28
2022-08-17T08:24:45.895Z,26.37
2022-08-17T08:27:44.529Z,26.39
2022-08-17T08:30:23.474Z,26.65
2022-08-17T08:32:57.209Z,26.72
2022-08-17T08:39:04.283Z,27.16
2022-08-17T08:41:43.559Z,26.91
2022-08-17T08:45:00.177Z,27.13
2022-08-17T08:47:36.141Z,27.08
2022-08-17T08:50:09.436Z,27.61
2022-08-17T08:53:31.904Z,27.68
2022-08-17T08:56:24.753Z,27.59
2022-08-17T08:59:22.275Z,28.12
2022-08-17T09:01:49.813Z,28.31
2022-08-17T09:05:13.043Z,28.46
2022-08-17T09:08:00.724Z,28.02
2022-08-17T09:10:36.892Z,27.81
2022-08-17T09:13:15.953Z,28.21
2022-08-17T09:19:00.224Z,28.80
2022-08-17T09:21:57.604Z,28.95
2022-08-17T09:24:25.892Z,28.88
2022-08-17T09:27:18.416Z,29.19
2022-08-17T09:29:57.826Z,28.74
2022-08-17T09:32:37.938Z,28.63
2022-08-17T09:35:10.435Z,29.25
2022-08-17T09:37:56.168Z,28.90
2022-08-17T09:40:28.709Z,29.57
2022-08-17T09:43:19.626Z,29.90
2022-08-17T09:45:51.924Z,29.74
2022-08-17T09:49:09.719Z,29.02
2022-08-17T09:51:53.935Z,29.72
2022-08-17T09:54:45.595Z,29.66
2022-08-17T09:57:32.580Z,29.83
2022-08-17T10:00:30.523Z,30.56
2022-08-17T10:06:22.088Z,30.55
2022-08-17T10:09:09.866Z,30.15
2022-08-17T10:12:11.735Z,30.93
2022-08-17T10:14:53.337Z,30.69
2022-08-17T10:17:24.908Z,30.53
2022-08-17T10:20:04.200Z,31.15
2022-08-17T10:23:27.013Z,31.25
2022-08-17T10:26:14.423Z,30.51
2022-08-17T10:28:48.431Z,30.44
2022-08-17T10:31:38.574Z,31.20
2022-08-17T10:34:49.605Z,31.59
2022-08-17T10:37:29.819Z,31.52
2022-08-17T10:40:19.413Z,31.49
2022-08-17T10:43:24.805Z,31.55
2022-08-17T10:46:31.072Z,31.48
2022-08-17T10:49:17.906Z,29.97
2022-08-17T10:51:53.357Z,30.08
2022-08-17T10:54:24.522Z,30.62
2022-08-17T10:57:29.049Z,31.14
2022-08-17T10:59:59.781Z,30.59
2022-08-17T11:02:39.000Z,30.86
2022-08-17T11:05:43.813Z,30.62
2022-08-17T11:08:33.016Z,30.59
2022-08-17T11:11:14.841Z,30.17
2022-08-17T11:14:11.168Z,30.69
2022-08-17T11:16:59.461Z,30.25
2022-08-17T11:19:34.342Z,30.48
2022-08-17T11:22:17.831Z,30.80
2022-08-17T11:27:49.580Z,31.15
2022-08-17T11:30:48.737Z,30.93
2022-08-17T11:33:34.213Z,30.46
2022-08-17T11:36:06.861Z,30.05
2022-08-17T11:42:42.520Z,29.86
2022-08-17T11:45:19.517Z,29.45
2022-08-17T11:48:46.492Z,29.78
2022-08-17T11:51:47.106Z,29.80
2022-08-17T11:54:34.347Z,30.07
2022-08-17T11:57:27.901Z,30.21
2022-08-17T12:00:07.881Z,30.19
2022-08-17T12:02:48.608Z,30.18
2022-08-17T12:05:22.882Z,30.28
2022-08-17T12:08:20.883Z,30.22
2022-08-17T12:10:59.709Z,30.14
2022-08-17T12:13:39.385Z,29.98
2022-08-17T12:16:09.933Z,30.32
2022-08-17T12:18:39.752Z,29.73
2022-08-17T12:21:28.653Z,29.53
2022-08-17T12:24:06.640Z,29.54
2022-08-17T12:26:36.690Z,29.42
2022-08-17T12:29:18.059Z,29.69
2022-08-17T12:32:03.841Z,29.52
2022-08-17T12:34:40.570Z,29.91
2022-08-17T12:40:37.882Z,30.04
2022-08-17T12:43:22.461Z,29.50
2022-08-17T12:45:59.425Z,29.69
2022-08-17T12:48:39.345Z,29.80
2022-08-17T12:51:29.017Z,30.05
2022-08-17T12:53:55.908Z,29.86
2022-08-17T12:56:23.996Z,30.14
2022-08-17T12:58:56.754Z,30.08
2022-08-17T13:01:25.142Z,30.05
2022-08-17T13:04:00.160Z,30.12
2022-08-17T13:06:33.574Z,30.21
2022-08-17T13:09:11.210Z,30.18
2022-08-17T13:11:50.571Z,30.31
2022-08-17T13:14:18.720Z,30.44
2022-08-17T13:16:53.770Z,29.74
2022-08-17T13:19:40.385Z,30.15
2022-08-17T13:22:12.728Z,30.04
2022-08-17T13:24:54.743Z,29.56
2022-08-17T13:27:26.038Z,30.04
2022-08-17T13:30:28.594Z,29.69
2022-08-17T13:32:57.401Z,29.72
2022-08-17T13:35:47.100Z,29.94
2022-08-17T13:38:45.585Z,30.18
2022-08-17T13:41:38.929Z,30.12
2022-08-17T13:44:30.968Z,30.24
2022-08-17T13:47:00.159Z,29.56
2022-08-17T13:49:41.713Z,29.52
2022-08-17T13:52:52.147Z,29.83
2022-08-17T13:55:40.884Z,29.70
2022-08-17T13:58:31.503Z,29.86
2022-08-17T14:01:38.654Z,29.93
2022-08-17T14:04:22.189Z,29.84
2022-08-17T14:07:21.468Z,29.91
2022-08-17T14:09:55.595Z,29.78
2022-08-17T14:15:23.406Z,29.87
2022-08-17T14:18:37.527Z,29.80
2022-08-17T14:21:18.695Z,29.72
2022-08-17T14:23:49.969Z,29.77
2022-08-17T14:26:22.083Z,29.74
2022-08-17T14:28:54.683Z,29.69
2022-08-17T14:34:20.975Z,29.72
2022-08-17T14:36:54.872Z,29.67
2022-08-17T14:39:22.053Z,29.69
2022-08-17T14:41:50.085Z,29.69
2022-08-17T14:44:23.629Z,29.60
2022-08-17T14:46:52.057Z,29.72
2022-08-17T14:49:20.799Z,29.76
2022-08-17T14:51:48.166Z,29.77
2022-08-17T14:54:33.189Z,29.78
2022-08-17T15:00:02.905Z,29.89
2022-08-17T15:02:30.874Z,29.60
2022-08-17T15:05:08.220Z,29.74
2022-08-17T15:07:35.896Z,29.70
2022-08-17T15:10:04.404Z,29.66
2022-08-17T15:12:33.636Z,29.74
2022-08-17T15:15:09.398Z,29.63
2022-08-17T15:17:44.207Z,29.38
2022-08-17T15:20:27.693Z,29.47
2022-08-17T15:22:57.401Z,29.49
2022-08-17T15:25:32.558Z,29.38
2022-08-17T15:28:00.788Z,29.35
2022-08-17T15:30:34.595Z,29.35
2022-08-17T15:33:30.198Z,29.24
2022-08-17T15:36:01.778Z,29.28
2022-08-17T15:38:30.640Z,29.04
2022-08-17T15:40:58.376Z,28.91
2022-08-17T15:43:33.757Z,28.86
2022-08-17T15:46:15.489Z,28.78
2022-08-17T15:48:46.187Z,28.88
2022-08-17T15:51:39.175Z,28.76
2022-08-17T15:54:22.240Z,28.86
2022-08-17T15:56:50.346Z,29.05
2022-08-17T15:59:18.344Z,28.98
2022-08-17T16:03:45.049Z,29.07
2022-08-17T16:05:40.792Z,29.21
2022-08-17T16:08:07.939Z,29.26
2022-08-17T16:10:40.268Z,29.01
2022-08-17T16:13:17.932Z,28.78
2022-08-17T16:15:56.239Z,29.05
2022-08-17T16:18:31.027Z,28.83
2022-08-17T16:27:11.712Z,28.69
2022-08-17T16:30:07.615Z,28.67
2022-08-17T16:32:36.308Z,28.49
2022-08-17T16:35:06.012Z,28.39
2022-08-17T16:37:34.315Z,28.37
2022-08-17T16:40:02.149Z,28.40
2022-08-17T16:42:33.164Z,28.32
2022-08-17T16:45:28.540Z,28.06
2022-08-17T16:48:02.000Z,28.21
2022-08-17T16:50:30.016Z,28.04
2022-08-17T16:53:07.056Z,28.04
2022-08-17T16:55:35.615Z,27.91
2022-08-17T16:58:05.229Z,27.87
2022-08-17T17:00:33.435Z,27.98
2022-08-17T17:03:19.625Z,27.76
2022-08-17T17:06:35.939Z,28.01
2022-08-17T17:09:12.086Z,27.39
2022-08-17T17:11:39.740Z,27.73
2022-08-17T17:14:15.697Z,27.76
2022-08-17T17:16:57.089Z,27.73
2022-08-17T17:19:46.611Z,27.57
2022-08-17T17:22:21.808Z,27.54
2022-08-17T17:25:04.888Z,27.56
2022-08-17T17:27:42.450Z,27.39
2022-08-17T17:34:16.643Z,26.99
2022-08-17T17:36:58.686Z,26.96
2022-08-17T17:39:31.879Z,27.16
2022-08-17T17:42:20.088Z,27.13
2022-08-17T17:45:03.088Z,26.96
2022-08-17T17:51:00.582Z,26.69
2022-08-17T17:54:09.868Z,26.92
2022-08-17T17:57:17.599Z,26.69
2022-08-17T18:00:14.761Z,26.61
2022-08-17T18:06:24.686Z,26.65
2022-08-17T18:09:08.850Z,26.48
2022-08-17T18:11:41.385Z,26.22
2022-08-17T18:14:41.272Z,26.15
2022-08-17T18:17:09.857Z,26.22
2022-08-17T18:19:39.928Z,26.32
2022-08-17T18:22:28.105Z,26.28
2022-08-17T18:24:58.494Z,26.20
2022-08-17T18:27:52.024Z,26.16
2022-08-17T18:30:20.080Z,25.61
2022-08-17T18:35:58.761Z,25.71
2022-08-17T18:38:43.191Z,25.86
2022-08-17T18:41:19.154Z,25.77
2022-08-17T18:44:02.122Z,25.51
2022-08-17T18:47:12.242Z,25.51
2022-08-17T18:49:46.161Z,25.40
2022-08-17T18:52:16.670Z,24.88
2022-08-17T18:55:15.629Z,24.57
2022-08-17T18:57:52.971Z,24.00
2022-08-17T19:00:43.572Z,23.96
2022-08-17T19:03:42.462Z,23.88
2022-08-17T19:06:28.424Z,23.99
2022-08-17T19:09:01.990Z,23.93
2022-08-17T19:11:37.897Z,23.88
2022-08-17T19:14:10.464Z,23.55
2022-08-17T19:16:56.597Z,23.77
2022-08-17T19:19:32.320Z,23.74
2022-08-17T19:22:15.910Z,23.61
2022-08-17T19:25:09.352Z,23.50
2022-08-17T19:27:49.197Z,23.57
2022-08-17T19:30:17.945Z,23.59
2022-08-17T19:32:45.877Z,23.48
2022-08-17T19:35:17.545Z,23.45
2022-08-17T19:38:12.935Z,23.45
2022-08-17T19:41:14.201Z,23.33
2022-08-17T19:43:57.340Z,23.31
2022-08-17T19:46:50.559Z,23.38
2022-08-17T19:49:33.483Z,23.22
2022-08-17T19:52:37.571Z,23.16
2022-08-17T19:55:31.197Z,23.17
2022-08-17T19:58:03.484Z,23.14
2022-08-17T20:01:00.962Z,22.99
